Alta Loma, California
Current Conditions -  °F | °C
As of 12:53 PM on Monday 24 Nov 2014 (Local Time) from KONT Reporting Station
Sand / Dust Storm Sand / Dust Storm  
Wind Chill: 24°   Ceiling: Unl
Heat Index: 24°   Visibility: 10mi
Dew Point: -12°   Wind: 22mph
Humidity: 8%   Direction: 50°NE
Pressure: 30.18"   Gusts: 38mph
Location:  34.12°N, 117.6°W
Report Text: KONT 242053Z 05019G33KT 10SM VCBLDU SCT250 24/M12 A3018 RMK AO2 PK WND 06033/2048 SLP213 T02441117 58020
Loading
Personal Weather Stations






























Interactive Weather Map New forecast layout! Learn more

10-Day Weather Forecast

Advertisements
Track Severe Weather on mobile